sensor_id;sensor_type;location;lat;lon;timestamp;temperature;humidity
14798;DHT22;7490;63.708;20.368;2023-10-08T00:01:08;1.30;99.90
14798;DHT22;7490;63.708;20.368;2023-10-08T00:03:39;1.30;99.90
14798;DHT22;7490;63.708;20.368;2023-10-08T00:06:06;1.30;99.90
14798;DHT22;7490;63.708;20.368;2023-10-08T00:08:33;1.20;99.90
14798;DHT22;7490;63.708;20.368;2023-10-08T00:10:58;1.30;99.90
14798;DHT22;7490;63.708;20.368;2023-10-08T00:13:31;1.30;99.90
14798;DHT22;7490;63.708;20.368;2023-10-08T00:15:57;1.20;99.90
14798;DHT22;7490;63.708;20.368;2023-10-08T00:18:23;1.20;99.90
14798;DHT22;7490;63.708;20.368;2023-10-08T00:20:50;1.20;99.90
14798;DHT22;7490;63.708;20.368;2023-10-08T00:23:41;1.20;99.90
14798;DHT22;7490;63.708;20.368;2023-10-08T00:26:25;1.20;99.90
14798;DHT22;7490;63.708;20.368;2023-10-08T00:29:02;1.20;99.90
14798;DHT22;7490;63.708;20.368;2023-10-08T00:31:32;1.20;99.90
14798;DHT22;7490;63.708;20.368;2023-10-08T00:34:10;1.20;99.90
14798;DHT22;7490;63.708;20.368;2023-10-08T00:36:43;1.20;99.90
14798;DHT22;7490;63.708;20.368;2023-10-08T00:39:10;1.20;99.90
14798;DHT22;7490;63.708;20.368;2023-10-08T00:41:44;1.20;99.90
14798;DHT22;7490;63.708;20.368;2023-10-08T00:44:12;1.20;99.90
14798;DHT22;7490;63.708;20.368;2023-10-08T00:46:42;1.20;99.90
14798;DHT22;7490;63.708;20.368;2023-10-08T00:49:17;1.30;99.90
14798;DHT22;7490;63.708;20.368;2023-10-08T00:51:47;1.30;99.90
14798;DHT22;7490;63.708;20.368;2023-10-08T00:54:15;1.30;99.90
14798;DHT22;7490;63.708;20.368;2023-10-08T00:56:47;1.30;99.90
14798;DHT22;7490;63.708;20.368;2023-10-08T00:59:16;1.30;99.90
14798;DHT22;7490;63.708;20.368;2023-10-08T01:01:46;1.20;99.90
14798;DHT22;7490;63.708;20.368;2023-10-08T01:04:20;1.30;99.90
14798;DHT22;7490;63.708;20.368;2023-10-08T01:06:52;1.30;99.90
14798;DHT22;7490;63.708;20.368;2023-10-08T01:09:27;1.30;99.90
14798;DHT22;7490;63.708;20.368;2023-10-08T01:14:45;1.40;99.90
14798;DHT22;7490;63.708;20.368;2023-10-08T01:17:22;1.30;99.90
14798;DHT22;7490;63.708;20.368;2023-10-08T01:19:51;1.30;99.90
14798;DHT22;7490;63.708;20.368;2023-10-08T01:22:22;1.30;99.90
14798;DHT22;7490;63.708;20.368;2023-10-08T01:24:51;1.30;99.90
14798;DHT22;7490;63.708;20.368;2023-10-08T01:27:20;1.30;99.90
14798;DHT22;7490;63.708;20.368;2023-10-08T01:29:51;1.30;99.90
14798;DHT22;7490;63.708;20.368;2023-10-08T01:32:21;1.30;99.90
14798;DHT22;7490;63.708;20.368;2023-10-08T01:34:48;1.30;99.90
14798;DHT22;7490;63.708;20.368;2023-10-08T01:37:17;1.40;99.90
14798;DHT22;7490;63.708;20.368;2023-10-08T01:39:47;1.20;99.90
14798;DHT22;7490;63.708;20.368;2023-10-08T01:42:15;1.20;99.90
14798;DHT22;7490;63.708;20.368;2023-10-08T01:44:44;1.30;99.90
14798;DHT22;7490;63.708;20.368;2023-10-08T01:47:12;1.30;99.90
14798;DHT22;7490;63.708;20.368;2023-10-08T01:49:38;1.30;99.90
14798;DHT22;7490;63.708;20.368;2023-10-08T01:52:08;1.30;99.90
14798;DHT22;7490;63.708;20.368;2023-10-08T01:54:39;1.30;99.90
14798;DHT22;7490;63.708;20.368;2023-10-08T01:57:05;1.30;99.90
14798;DHT22;7490;63.708;20.368;2023-10-08T01:59:34;1.30;99.90
14798;DHT22;7490;63.708;20.368;2023-10-08T02:02:00;1.30;99.90
14798;DHT22;7490;63.708;20.368;2023-10-08T02:04:26;1.30;99.90
14798;DHT22;7490;63.708;20.368;2023-10-08T02:06:51;1.40;99.90
14798;DHT22;7490;63.708;20.368;2023-10-08T02:09:17;1.40;99.90
14798;DHT22;7490;63.708;20.368;2023-10-08T02:11:46;1.40;99.90
14798;DHT22;7490;63.708;20.368;2023-10-08T02:14:15;1.40;99.90
14798;DHT22;7490;63.708;20.368;2023-10-08T02:16:45;1.30;99.90
14798;DHT22;7490;63.708;20.368;2023-10-08T02:19:11;1.30;99.90
14798;DHT22;7490;63.708;20.368;2023-10-08T02:21:37;1.40;99.90
14798;DHT22;7490;63.708;20.368;2023-10-08T02:24:07;1.30;99.90
14798;DHT22;7490;63.708;20.368;2023-10-08T02:26:34;1.40;99.90
14798;DHT22;7490;63.708;20.368;2023-10-08T02:29:04;1.40;99.90
14798;DHT22;7490;63.708;20.368;2023-10-08T02:31:39;1.40;99.90
14798;DHT22;7490;63.708;20.368;2023-10-08T02:34:08;1.40;99.90
14798;DHT22;7490;63.708;20.368;2023-10-08T02:36:35;1.40;99.90
14798;DHT22;7490;63.708;20.368;2023-10-08T02:39:03;1.40;99.90
14798;DHT22;7490;63.708;20.368;2023-10-08T02:41:32;1.40;99.90
14798;DHT22;7490;63.708;20.368;2023-10-08T02:43:57;1.40;99.90
14798;DHT22;7490;63.708;20.368;2023-10-08T02:46:24;1.40;99.90
14798;DHT22;7490;63.708;20.368;2023-10-08T02:48:52;1.40;99.90
14798;DHT22;7490;63.708;20.368;2023-10-08T02:51:18;1.40;99.90
14798;DHT22;7490;63.708;20.368;2023-10-08T02:53:46;1.40;99.90
14798;DHT22;7490;63.708;20.368;2023-10-08T02:56:12;1.40;99.90
14798;DHT22;7490;63.708;20.368;2023-10-08T02:58:42;1.40;99.90
14798;DHT22;7490;63.708;20.368;2023-10-08T03:01:12;1.50;99.90
14798;DHT22;7490;63.708;20.368;2023-10-08T03:03:41;1.50;99.90
14798;DHT22;7490;63.708;20.368;2023-10-08T03:06:08;1.50;99.90
14798;DHT22;7490;63.708;20.368;2023-10-08T03:08:40;1.40;99.90
14798;DHT22;7490;63.708;20.368;2023-10-08T03:11:12;1.40;99.90
14798;DHT22;7490;63.708;20.368;2023-10-08T03:13:46;1.40;99.90
14798;DHT22;7490;63.708;20.368;2023-10-08T03:16:14;1.40;99.90
14798;DHT22;7490;63.708;20.368;2023-10-08T03:18:40;1.40;99.90
14798;DHT22;7490;63.708;20.368;2023-10-08T03:21:08;1.50;99.90
14798;DHT22;7490;63.708;20.368;2023-10-08T03:23:54;1.50;99.90
14798;DHT22;7490;63.708;20.368;2023-10-08T03:26:23;1.60;99.90
14798;DHT22;7490;63.708;20.368;2023-10-08T03:29:04;1.50;99.90
14798;DHT22;7490;63.708;20.368;2023-10-08T03:31:41;1.50;99.90
14798;DHT22;7490;63.708;20.368;2023-10-08T03:34:17;1.60;99.90
14798;DHT22;7490;63.708;20.368;2023-10-08T03:36:46;1.50;99.90
14798;DHT22;7490;63.708;20.368;2023-10-08T03:39:15;1.50;99.90
14798;DHT22;7490;63.708;20.368;2023-10-08T03:41:41;1.50;99.90
14798;DHT22;7490;63.708;20.368;2023-10-08T03:44:08;1.50;99.90
14798;DHT22;7490;63.708;20.368;2023-10-08T03:46:42;1.40;99.90
14798;DHT22;7490;63.708;20.368;2023-10-08T03:49:12;1.40;99.90
14798;DHT22;7490;63.708;20.368;2023-10-08T03:51:58;1.40;99.90
14798;DHT22;7490;63.708;20.368;2023-10-08T03:54:24;1.30;99.90
14798;DHT22;7490;63.708;20.368;2023-10-08T03:56:55;1.30;99.90
14798;DHT22;7490;63.708;20.368;2023-10-08T03:59:21;1.30;99.90
14798;DHT22;7490;63.708;20.368;2023-10-08T04:02:06;1.30;99.90
14798;DHT22;7490;63.708;20.368;2023-10-08T04:04:48;1.30;99.90
14798;DHT22;7490;63.708;20.368;2023-10-08T04:07:19;1.30;99.90
14798;DHT22;7490;63.708;20.368;2023-10-08T04:10:05;1.30;99.90
14798;DHT22;7490;63.708;20.368;2023-10-08T04:12:51;1.30;99.90
14798;DHT22;7490;63.708;20.368;2023-10-08T04:15:18;1.30;99.90
14798;DHT22;7490;63.708;20.368;2023-10-08T04:17:45;1.20;99.90
14798;DHT22;7490;63.708;20.368;2023-10-08T04:20:15;1.20;99.90
14798;DHT22;7490;63.708;20.368;2023-10-08T04:23:05;1.20;99.90
14798;DHT22;7490;63.708;20.368;2023-10-08T04:25:32;1.20;99.90
14798;DHT22;7490;63.708;20.368;2023-10-08T04:27:59;1.20;99.90
14798;DHT22;7490;63.708;20.368;2023-10-08T04:30:32;1.20;99.90
14798;DHT22;7490;63.708;20.368;2023-10-08T04:33:05;1.20;99.90
14798;DHT22;7490;63.708;20.368;2023-10-08T04:35:39;1.20;99.90
14798;DHT22;7490;63.708;20.368;2023-10-08T04:38:18;1.20;99.90
14798;DHT22;7490;63.708;20.368;2023-10-08T04:40:45;1.10;99.90
14798;DHT22;7490;63.708;20.368;2023-10-08T04:43:23;1.10;99.90
14798;DHT22;7490;63.708;20.368;2023-10-08T04:46:02;1.10;99.90
14798;DHT22;7490;63.708;20.368;2023-10-08T04:48:34;1.10;99.90
14798;DHT22;7490;63.708;20.368;2023-10-08T04:51:02;1.10;99.90
14798;DHT22;7490;63.708;20.368;2023-10-08T04:53:33;1.00;99.90
14798;DHT22;7490;63.708;20.368;2023-10-08T04:56:04;1.00;99.90
14798;DHT22;7490;63.708;20.368;2023-10-08T04:58:39;1.00;99.90
14798;DHT22;7490;63.708;20.368;2023-10-08T05:01:09;1.10;99.90
14798;DHT22;7490;63.708;20.368;2023-10-08T05:03:45;1.00;99.90
14798;DHT22;7490;63.708;20.368;2023-10-08T05:06:34;1.00;99.90
14798;DHT22;7490;63.708;20.368;2023-10-08T05:09:04;1.00;99.90
14798;DHT22;7490;63.708;20.368;2023-10-08T05:11:39;1.00;99.90
14798;DHT22;7490;63.708;20.368;2023-10-08T05:14:25;0.90;99.90
14798;DHT22;7490;63.708;20.368;2023-10-08T05:17:07;1.00;99.90
14798;DHT22;7490;63.708;20.368;2023-10-08T05:19:37;1.00;99.90
14798;DHT22;7490;63.708;20.368;2023-10-08T05:22:09;1.10;99.90
14798;DHT22;7490;63.708;20.368;2023-10-08T05:24:55;1.10;99.90
14798;DHT22;7490;63.708;20.368;2023-10-08T05:27:41;1.20;99.90
14798;DHT22;7490;63.708;20.368;2023-10-08T05:30:13;1.30;99.90
14798;DHT22;7490;63.708;20.368;2023-10-08T05:32:52;1.30;99.90
14798;DHT22;7490;63.708;20.368;2023-10-08T05:35:37;1.40;99.90
14798;DHT22;7490;63.708;20.368;2023-10-08T05:38:09;1.40;99.90
14798;DHT22;7490;63.708;20.368;2023-10-08T05:40:47;1.50;99.90
14798;DHT22;7490;63.708;20.368;2023-10-08T05:43:22;1.50;99.90
14798;DHT22;7490;63.708;20.368;2023-10-08T05:46:06;1.60;99.90
14798;DHT22;7490;63.708;20.368;2023-10-08T05:48:47;1.70;99.90
14798;DHT22;7490;63.708;20.368;2023-10-08T05:51:35;1.80;99.90
14798;DHT22;7490;63.708;20.368;2023-10-08T05:54:14;1.80;99.90
14798;DHT22;7490;63.708;20.368;2023-10-08T05:56:53;1.90;99.90
14798;DHT22;7490;63.708;20.368;2023-10-08T05:59:31;2.20;99.90
14798;DHT22;7490;63.708;20.368;2023-10-08T06:02:06;3.00;99.90
14798;DHT22;7490;63.708;20.368;2023-10-08T06:04:53;4.20;99.90
14798;DHT22;7490;63.708;20.368;2023-10-08T06:07:37;5.80;99.90
14798;DHT22;7490;63.708;20.368;2023-10-08T06:10:14;7.20;99.90
14798;DHT22;7490;63.708;20.368;2023-10-08T06:13:06;8.40;99.90
14798;DHT22;7490;63.708;20.368;2023-10-08T06:15:46;9.30;99.90
14798;DHT22;7490;63.708;20.368;2023-10-08T06:18:15;10.00;99.90
14798;DHT22;7490;63.708;20.368;2023-10-08T06:20:44;10.60;99.90
14798;DHT22;7490;63.708;20.368;2023-10-08T06:23:11;11.10;99.90
14798;DHT22;7490;63.708;20.368;2023-10-08T06:25:39;11.50;99.10
14798;DHT22;7490;63.708;20.368;2023-10-08T06:28:20;11.90;97.80
14798;DHT22;7490;63.708;20.368;2023-10-08T06:30:50;12.50;96.30
14798;DHT22;7490;63.708;20.368;2023-10-08T06:33:20;12.90;94.50
14798;DHT22;7490;63.708;20.368;2023-10-08T06:35:46;13.10;93.00
14798;DHT22;7490;63.708;20.368;2023-10-08T06:38:32;13.40;92.00
14798;DHT22;7490;63.708;20.368;2023-10-08T06:41:03;13.80;90.60
14798;DHT22;7490;63.708;20.368;2023-10-08T06:43:38;14.00;87.70
14798;DHT22;7490;63.708;20.368;2023-10-08T06:46:05;14.20;86.60
14798;DHT22;7490;63.708;20.368;2023-10-08T06:48:33;14.40;84.10
14798;DHT22;7490;63.708;20.368;2023-10-08T06:51:00;14.70;81.90
14798;DHT22;7490;63.708;20.368;2023-10-08T06:53:39;14.80;79.70
14798;DHT22;7490;63.708;20.368;2023-10-08T06:56:05;14.80;78.90
14798;DHT22;7490;63.708;20.368;2023-10-08T06:58:31;15.00;76.30
14798;DHT22;7490;63.708;20.368;2023-10-08T07:01:00;14.50;74.10
14798;DHT22;7490;63.708;20.368;2023-10-08T07:03:35;13.60;73.00
14798;DHT22;7490;63.708;20.368;2023-10-08T07:06:01;12.30;74.00
14798;DHT22;7490;63.708;20.368;2023-10-08T07:08:42;11.30;76.20
14798;DHT22;7490;63.708;20.368;2023-10-08T07:11:12;10.30;78.10
14798;DHT22;7490;63.708;20.368;2023-10-08T07:13:39;9.60;79.60
14798;DHT22;7490;63.708;20.368;2023-10-08T07:16:06;9.00;82.00
14798;DHT22;7490;63.708;20.368;2023-10-08T07:18:37;9.00;84.20
14798;DHT22;7490;63.708;20.368;2023-10-08T07:21:03;9.30;85.00
14798;DHT22;7490;63.708;20.368;2023-10-08T07:23:39;9.40;83.30
14798;DHT22;7490;63.708;20.368;2023-10-08T07:26:22;9.00;82.80
14798;DHT22;7490;63.708;20.368;2023-10-08T07:28:50;8.60;83.80
14798;DHT22;7490;63.708;20.368;2023-10-08T07:31:22;8.40;85.50
14798;DHT22;7490;63.708;20.368;2023-10-08T07:33:50;9.10;87.80
14798;DHT22;7490;63.708;20.368;2023-10-08T07:36:25;10.30;87.00
14798;DHT22;7490;63.708;20.368;2023-10-08T07:38:55;11.40;83.10
14798;DHT22;7490;63.708;20.368;2023-10-08T07:41:20;12.40;81.20
14798;DHT22;7490;63.708;20.368;2023-10-08T07:43:47;13.00;77.70
14798;DHT22;7490;63.708;20.368;2023-10-08T07:46:24;12.80;75.10
14798;DHT22;7490;63.708;20.368;2023-10-08T07:48:54;12.00;74.80
14798;DHT22;7490;63.708;20.368;2023-10-08T07:51:20;11.20;75.80
14798;DHT22;7490;63.708;20.368;2023-10-08T07:53:52;10.70;77.60
14798;DHT22;7490;63.708;20.368;2023-10-08T07:56:22;10.20;78.00
14798;DHT22;7490;63.708;20.368;2023-10-08T07:58:49;9.70;78.70
14798;DHT22;7490;63.708;20.368;2023-10-08T08:01:15;9.20;79.40
14798;DHT22;7490;63.708;20.368;2023-10-08T08:03:41;8.90;81.20
14798;DHT22;7490;63.708;20.368;2023-10-08T08:06:11;8.80;81.80
14798;DHT22;7490;63.708;20.368;2023-10-08T08:08:39;8.50;81.90
14798;DHT22;7490;63.708;20.368;2023-10-08T08:11:08;8.10;82.40
14798;DHT22;7490;63.708;20.368;2023-10-08T08:13:43;7.90;83.10
14798;DHT22;7490;63.708;20.368;2023-10-08T08:16:11;8.00;86.30
14798;DHT22;7490;63.708;20.368;2023-10-08T08:18:47;9.20;86.70
14798;DHT22;7490;63.708;20.368;2023-10-08T08:21:14;10.70;85.00
14798;DHT22;7490;63.708;20.368;2023-10-08T08:23:44;12.10;81.80
14798;DHT22;7490;63.708;20.368;2023-10-08T08:26:23;13.30;78.10
14798;DHT22;7490;63.708;20.368;2023-10-08T08:29:01;14.10;75.90
14798;DHT22;7490;63.708;20.368;2023-10-08T08:31:30;14.90;72.60
14798;DHT22;7490;63.708;20.368;2023-10-08T08:33:57;15.40;71.00
14798;DHT22;7490;63.708;20.368;2023-10-08T08:36:28;15.90;69.40
14798;DHT22;7490;63.708;20.368;2023-10-08T08:38:55;16.50;67.00
14798;DHT22;7490;63.708;20.368;2023-10-08T08:41:21;16.80;65.00
14798;DHT22;7490;63.708;20.368;2023-10-08T08:43:53;17.00;63.20
14798;DHT22;7490;63.708;20.368;2023-10-08T08:46:37;17.20;62.40
14798;DHT22;7490;63.708;20.368;2023-10-08T08:49:07;17.60;61.20
14798;DHT22;7490;63.708;20.368;2023-10-08T08:51:36;18.00;59.30
14798;DHT22;7490;63.708;20.368;2023-10-08T08:54:04;18.20;58.70
14798;DHT22;7490;63.708;20.368;2023-10-08T08:56:38;18.50;57.40
14798;DHT22;7490;63.708;20.368;2023-10-08T08:59:07;18.50;55.80
14798;DHT22;7490;63.708;20.368;2023-10-08T09:01:42;18.50;55.90
14798;DHT22;7490;63.708;20.368;2023-10-08T09:04:09;18.70;55.70
14798;DHT22;7490;63.708;20.368;2023-10-08T09:06:35;19.00;55.10
14798;DHT22;7490;63.708;20.368;2023-10-08T09:09:05;19.20;54.00
14798;DHT22;7490;63.708;20.368;2023-10-08T09:11:50;19.40;53.40
14798;DHT22;7490;63.708;20.368;2023-10-08T09:14:21;19.50;52.90
14798;DHT22;7490;63.708;20.368;2023-10-08T09:16:48;19.50;52.00
14798;DHT22;7490;63.708;20.368;2023-10-08T09:19:15;19.30;51.70
14798;DHT22;7490;63.708;20.368;2023-10-08T09:24:30;19.40;51.10
14798;DHT22;7490;63.708;20.368;2023-10-08T09:26:56;19.30;50.60
14798;DHT22;7490;63.708;20.368;2023-10-08T09:29:23;19.20;51.00
14798;DHT22;7490;63.708;20.368;2023-10-08T09:31:56;19.30;50.60
14798;DHT22;7490;63.708;20.368;2023-10-08T09:34:29;19.40;50.60
14798;DHT22;7490;63.708;20.368;2023-10-08T09:36:56;19.50;49.80
14798;DHT22;7490;63.708;20.368;2023-10-08T09:39:24;19.40;49.30
14798;DHT22;7490;63.708;20.368;2023-10-08T09:41:56;19.20;49.50
14798;DHT22;7490;63.708;20.368;2023-10-08T09:44:23;19.10;49.40
14798;DHT22;7490;63.708;20.368;2023-10-08T09:47:03;19.10;49.90
14798;DHT22;7490;63.708;20.368;2023-10-08T09:52:31;19.50;49.50
14798;DHT22;7490;63.708;20.368;2023-10-08T09:55:10;19.50;49.00
14798;DHT22;7490;63.708;20.368;2023-10-08T09:57:38;19.40;48.70
14798;DHT22;7490;63.708;20.368;2023-10-08T10:00:05;19.40;49.30
14798;DHT22;7490;63.708;20.368;2023-10-08T10:02:44;19.50;48.90
14798;DHT22;7490;63.708;20.368;2023-10-08T10:05:11;19.60;49.20
14798;DHT22;7490;63.708;20.368;2023-10-08T10:07:37;19.60;48.20
14798;DHT22;7490;63.708;20.368;2023-10-08T10:10:25;19.70;47.90
14798;DHT22;7490;63.708;20.368;2023-10-08T10:12:51;19.70;47.90
14798;DHT22;7490;63.708;20.368;2023-10-08T10:15:20;19.80;48.20
14798;DHT22;7490;63.708;20.368;2023-10-08T10:17:47;19.90;48.10
14798;DHT22;7490;63.708;20.368;2023-10-08T10:20:14;19.80;47.60
14798;DHT22;7490;63.708;20.368;2023-10-08T10:22:40;19.70;47.40
14798;DHT22;7490;63.708;20.368;2023-10-08T10:25:09;19.60;47.30
14798;DHT22;7490;63.708;20.368;2023-10-08T10:30:33;19.50;47.50
14798;DHT22;7490;63.708;20.368;2023-10-08T10:33:03;19.40;47.80
14798;DHT22;7490;63.708;20.368;2023-10-08T10:35:31;19.50;47.60
14798;DHT22;7490;63.708;20.368;2023-10-08T10:37:58;19.40;47.30
14798;DHT22;7490;63.708;20.368;2023-10-08T10:40:29;19.30;47.50
14798;DHT22;7490;63.708;20.368;2023-10-08T10:43:05;19.30;47.60
14798;DHT22;7490;63.708;20.368;2023-10-08T10:45:32;19.30;47.60
14798;DHT22;7490;63.708;20.368;2023-10-08T10:48:05;19.20;47.30
14798;DHT22;7490;63.708;20.368;2023-10-08T10:50:41;19.10;47.20
14798;DHT22;7490;63.708;20.368;2023-10-08T10:53:26;19.10;47.30
14798;DHT22;7490;63.708;20.368;2023-10-08T10:55:53;19.10;47.40
14798;DHT22;7490;63.708;20.368;2023-10-08T10:58:42;19.00;47.40
14798;DHT22;7490;63.708;20.368;2023-10-08T11:01:07;18.90;47.50
14798;DHT22;7490;63.708;20.368;2023-10-08T11:03:33;18.80;47.70
14798;DHT22;7490;63.708;20.368;2023-10-08T11:06:00;18.60;47.80
14798;DHT22;7490;63.708;20.368;2023-10-08T11:08:31;18.50;47.90
14798;DHT22;7490;63.708;20.368;2023-10-08T11:11:01;18.30;48.00
14798;DHT22;7490;63.708;20.368;2023-10-08T11:13:33;18.10;48.10
14798;DHT22;7490;63.708;20.368;2023-10-08T11:16:04;17.60;47.90
14798;DHT22;7490;63.708;20.368;2023-10-08T11:18:30;16.80;48.20
14798;DHT22;7490;63.708;20.368;2023-10-08T11:21:09;15.90;49.30
14798;DHT22;7490;63.708;20.368;2023-10-08T11:23:55;15.10;50.50
14798;DHT22;7490;63.708;20.368;2023-10-08T11:26:23;14.20;51.80
14798;DHT22;7490;63.708;20.368;2023-10-08T11:29:01;13.60;53.00
14798;DHT22;7490;63.708;20.368;2023-10-08T11:31:28;13.10;54.50
14798;DHT22;7490;63.708;20.368;2023-10-08T11:33:59;12.60;55.20
14798;DHT22;7490;63.708;20.368;2023-10-08T11:36:27;12.30;56.10
14798;DHT22;7490;63.708;20.368;2023-10-08T11:38:55;12.00;56.70
14798;DHT22;7490;63.708;20.368;2023-10-08T11:41:27;11.70;57.60
14798;DHT22;7490;63.708;20.368;2023-10-08T11:43:57;11.40;58.30
14798;DHT22;7490;63.708;20.368;2023-10-08T11:49:04;11.10;59.10
14798;DHT22;7490;63.708;20.368;2023-10-08T11:51:32;10.90;59.40
14798;DHT22;7490;63.708;20.368;2023-10-08T11:53:59;10.90;60.00
14798;DHT22;7490;63.708;20.368;2023-10-08T11:56:26;10.70;60.30
14798;DHT22;7490;63.708;20.368;2023-10-08T11:58:53;10.60;61.00
14798;DHT22;7490;63.708;20.368;2023-10-08T12:01:22;10.50;61.80
14798;DHT22;7490;63.708;20.368;2023-10-08T12:03:49;10.50;62.30
14798;DHT22;7490;63.708;20.368;2023-10-08T12:06:16;10.40;63.00
14798;DHT22;7490;63.708;20.368;2023-10-08T12:08:45;10.40;63.60
14798;DHT22;7490;63.708;20.368;2023-10-08T12:11:15;10.40;64.00
14798;DHT22;7490;63.708;20.368;2023-10-08T12:13:42;10.30;64.20
14798;DHT22;7490;63.708;20.368;2023-10-08T12:16:14;10.20;64.30
14798;DHT22;7490;63.708;20.368;2023-10-08T12:18:49;10.20;64.60
14798;DHT22;7490;63.708;20.368;2023-10-08T12:21:19;10.10;64.90
14798;DHT22;7490;63.708;20.368;2023-10-08T12:23:45;10.10;65.00
14798;DHT22;7490;63.708;20.368;2023-10-08T12:26:15;10.00;65.10
14798;DHT22;7490;63.708;20.368;2023-10-08T12:28:47;9.90;65.20
14798;DHT22;7490;63.708;20.368;2023-10-08T12:31:15;9.90;65.30
14798;DHT22;7490;63.708;20.368;2023-10-08T12:33:41;9.80;65.40
14798;DHT22;7490;63.708;20.368;2023-10-08T12:36:09;9.70;65.50
14798;DHT22;7490;63.708;20.368;2023-10-08T12:38:42;9.70;66.00
14798;DHT22;7490;63.708;20.368;2023-10-08T12:41:11;9.60;66.20
14798;DHT22;7490;63.708;20.368;2023-10-08T12:43:41;9.60;66.50
14798;DHT22;7490;63.708;20.368;2023-10-08T12:46:18;9.50;66.70
14798;DHT22;7490;63.708;20.368;2023-10-08T12:48:47;9.50;67.00
14798;DHT22;7490;63.708;20.368;2023-10-08T12:51:18;9.40;67.30
14798;DHT22;7490;63.708;20.368;2023-10-08T12:53:44;9.40;67.30
14798;DHT22;7490;63.708;20.368;2023-10-08T12:56:20;9.40;67.40
14798;DHT22;7490;63.708;20.368;2023-10-08T12:58:57;9.30;67.60
14798;DHT22;7490;63.708;20.368;2023-10-08T13:01:23;9.20;67.60
14798;DHT22;7490;63.708;20.368;2023-10-08T13:03:48;9.20;68.00
14798;DHT22;7490;63.708;20.368;2023-10-08T13:06:15;9.20;68.40
14798;DHT22;7490;63.708;20.368;2023-10-08T13:08:48;9.10;68.70
14798;DHT22;7490;63.708;20.368;2023-10-08T13:11:14;9.10;69.10
14798;DHT22;7490;63.708;20.368;2023-10-08T13:13:40;9.00;69.30
14798;DHT22;7490;63.708;20.368;2023-10-08T13:16:07;9.00;69.70
14798;DHT22;7490;63.708;20.368;2023-10-08T13:18:33;9.00;69.90
14798;DHT22;7490;63.708;20.368;2023-10-08T13:20:59;8.90;70.00
14798;DHT22;7490;63.708;20.368;2023-10-08T13:23:26;8.90;70.40
14798;DHT22;7490;63.708;20.368;2023-10-08T13:25:53;8.80;71.30
14798;DHT22;7490;63.708;20.368;2023-10-08T13:28:29;8.80;70.60
14798;DHT22;7490;63.708;20.368;2023-10-08T13:30:55;8.70;70.60
14798;DHT22;7490;63.708;20.368;2023-10-08T13:33:21;8.70;70.90
14798;DHT22;7490;63.708;20.368;2023-10-08T13:35:50;8.60;70.90
14798;DHT22;7490;63.708;20.368;2023-10-08T13:38:17;8.60;72.00
14798;DHT22;7490;63.708;20.368;2023-10-08T13:40:48;8.50;71.40
14798;DHT22;7490;63.708;20.368;2023-10-08T13:43:37;8.40;71.50
14798;DHT22;7490;63.708;20.368;2023-10-08T13:46:06;8.40;71.80
14798;DHT22;7490;63.708;20.368;2023-10-08T13:48:34;8.30;72.10
14798;DHT22;7490;63.708;20.368;2023-10-08T13:51:04;8.30;72.50
14798;DHT22;7490;63.708;20.368;2023-10-08T13:53:33;8.20;72.90
14798;DHT22;7490;63.708;20.368;2023-10-08T13:56:02;8.20;73.10
14798;DHT22;7490;63.708;20.368;2023-10-08T13:58:30;8.20;73.40
14798;DHT22;7490;63.708;20.368;2023-10-08T14:00:58;8.10;73.60
14798;DHT22;7490;63.708;20.368;2023-10-08T14:03:29;8.10;74.10
14798;DHT22;7490;63.708;20.368;2023-10-08T14:05:59;8.00;74.30
14798;DHT22;7490;63.708;20.368;2023-10-08T14:08:30;8.00;74.70
14798;DHT22;7490;63.708;20.368;2023-10-08T14:10:57;7.90;75.00
14798;DHT22;7490;63.708;20.368;2023-10-08T14:13:29;7.90;75.20
14798;DHT22;7490;63.708;20.368;2023-10-08T14:15:57;7.80;75.80
14798;DHT22;7490;63.708;20.368;2023-10-08T14:18:23;7.70;76.20
14798;DHT22;7490;63.708;20.368;2023-10-08T14:20:54;7.60;76.50
14798;DHT22;7490;63.708;20.368;2023-10-08T14:23:21;7.60;76.80
14798;DHT22;7490;63.708;20.368;2023-10-08T14:25:49;7.50;77.10
14798;DHT22;7490;63.708;20.368;2023-10-08T14:28:16;7.50;77.60
14798;DHT22;7490;63.708;20.368;2023-10-08T14:30:48;7.40;78.00
14798;DHT22;7490;63.708;20.368;2023-10-08T14:33:20;7.40;78.40
14798;DHT22;7490;63.708;20.368;2023-10-08T14:35:50;7.30;78.80
14798;DHT22;7490;63.708;20.368;2023-10-08T14:38:35;7.20;79.00
14798;DHT22;7490;63.708;20.368;2023-10-08T14:41:19;7.10;79.20
14798;DHT22;7490;63.708;20.368;2023-10-08T14:44:03;7.00;80.40
14798;DHT22;7490;63.708;20.368;2023-10-08T14:46:30;6.90;80.10
14798;DHT22;7490;63.708;20.368;2023-10-08T14:49:00;6.90;80.70
14798;DHT22;7490;63.708;20.368;2023-10-08T14:51:27;6.80;80.90
14798;DHT22;7490;63.708;20.368;2023-10-08T14:53:55;6.70;81.30
14798;DHT22;7490;63.708;20.368;2023-10-08T14:56:21;6.60;81.70
14798;DHT22;7490;63.708;20.368;2023-10-08T14:58:48;6.50;82.00
14798;DHT22;7490;63.708;20.368;2023-10-08T15:01:14;6.40;82.40
14798;DHT22;7490;63.708;20.368;2023-10-08T15:03:40;6.30;82.70
14798;DHT22;7490;63.708;20.368;2023-10-08T15:06:06;6.20;83.10
14798;DHT22;7490;63.708;20.368;2023-10-08T15:08:33;6.10;83.50
14798;DHT22;7490;63.708;20.368;2023-10-08T15:10:59;6.10;83.80
14798;DHT22;7490;63.708;20.368;2023-10-08T15:13:25;6.00;84.10
14798;DHT22;7490;63.708;20.368;2023-10-08T15:15:52;5.90;84.40
14798;DHT22;7490;63.708;20.368;2023-10-08T15:18:19;5.80;84.70
14798;DHT22;7490;63.708;20.368;2023-10-08T15:20:48;5.80;85.20
14798;DHT22;7490;63.708;20.368;2023-10-08T15:23:14;5.70;85.60
14798;DHT22;7490;63.708;20.368;2023-10-08T15:25:42;5.70;86.10
14798;DHT22;7490;63.708;20.368;2023-10-08T15:28:08;5.60;86.40
14798;DHT22;7490;63.708;20.368;2023-10-08T15:30:34;5.60;86.90
14798;DHT22;7490;63.708;20.368;2023-10-08T15:33:00;5.50;87.40
14798;DHT22;7490;63.708;20.368;2023-10-08T15:35:26;5.50;87.90
14798;DHT22;7490;63.708;20.368;2023-10-08T15:37:52;5.40;88.80
14798;DHT22;7490;63.708;20.368;2023-10-08T15:40:19;5.40;88.80
14798;DHT22;7490;63.708;20.368;2023-10-08T15:42:55;5.40;89.30
14798;DHT22;7490;63.708;20.368;2023-10-08T15:45:24;5.40;89.90
14798;DHT22;7490;63.708;20.368;2023-10-08T15:47:51;5.30;90.10
14798;DHT22;7490;63.708;20.368;2023-10-08T15:50:17;5.20;90.30
14798;DHT22;7490;63.708;20.368;2023-10-08T15:52:46;5.10;90.50
14798;DHT22;7490;63.708;20.368;2023-10-08T15:55:13;5.00;90.70
14798;DHT22;7490;63.708;20.368;2023-10-08T15:57:39;4.90;91.00
14798;DHT22;7490;63.708;20.368;2023-10-08T16:00:07;4.80;91.20
14798;DHT22;7490;63.708;20.368;2023-10-08T16:02:33;4.70;91.40
14798;DHT22;7490;63.708;20.368;2023-10-08T16:04:59;4.60;91.60
14798;DHT22;7490;63.708;20.368;2023-10-08T16:07:25;4.50;91.80
14798;DHT22;7490;63.708;20.368;2023-10-08T16:09:50;4.40;92.00
14798;DHT22;7490;63.708;20.368;2023-10-08T16:12:16;4.40;92.30
14798;DHT22;7490;63.708;20.368;2023-10-08T16:14:43;4.30;92.50
14798;DHT22;7490;63.708;20.368;2023-10-08T16:17:10;4.20;92.70